METAR - Ísland

Uppfært síðast 05.03.2024 - kl. 01:19

SIGMET síðustu 6 klst.

Engin SIGMET skeyti bárust síðustu 6 klst.

METAR síðustu 3 klst

Frá og með 1. október 2021, munu brautarskilyrði ekki birtast í METAR skeytum.
Í staðinn mun ISAVIA gefa út SNOWTAM á síðunni SNOWTAM | Isavia.

Flugv.TímiSkeyti
BIAR2024-03-05 01.00METAR BIAR 050100Z 11009KT 9999 SCT067 04/M01 Q1006
BIAR2024-03-05 00.00METAR BIAR 050000Z VRB02KT 9999 SCT067 03/M00 Q1005
BIAR2024-03-04 23.00METAR BIAR 042300Z 00000KT 9999 FEW050 02/M01 Q1004
BIEG2024-03-05 01.00METAR BIEG 050100Z VRB03KT 9999 SCT030 06/01 Q1009
BIEG2024-03-05 00.00METAR BIEG 050000Z 20006KT 9999 SCT040 06/01 Q1008
BIEG2024-03-04 23.00METAR BIEG 042300Z 23006KT 200V260 9999 FEW030 SCT050 05/01 Q1007
BIKF2024-03-05 01.00METAR BIKF 050100Z 10019KT 9999 BKN019 BKN036 06/04 Q0999
BIKF2024-03-05 00.30METAR BIKF 050030Z 10019KT 9999 SCT018 BKN027 06/04 Q0999
BIKF2024-03-05 00.00METAR BIKF 050000Z 11016KT 9999 -RA FEW017 BKN022 06/04 Q0999
BIKF2024-03-04 23.30METAR BIKF 042330Z 11015KT 9999 FEW028 SCT130 05/03 Q0999
BIKF2024-03-04 23.00METAR BIKF 042300Z 12011KT 9999 FEW012 SCT025 05/03 Q0999
BIKF2024-03-04 22.30METAR BIKF 042230Z 13013KT 9999 FEW014 SCT027 05/03 Q0998
BIRK2024-03-05 01.00METAR BIRK 050100Z 12016KT 9999 SCT025 06/04 Q1000
BIRK2024-03-05 00.00METAR BIRK 050000Z 12011KT 9999 -DZRA SCT020 BKN040 06/04 Q1000
BIRK2024-03-04 23.00METAR BIRK 042300Z 10009KT 9999 FEW025 SCT039 06/03 Q1000

Textaspár eru skrifaðar af vakthafandi veðurfræðingi á Veðurstofu Íslands.




Aðrir tengdir vefir



Þetta vefsvæði byggir á Eplica